TLPL

Details ICAO TLPL (UVF)
Name St. Lucia/Hewanorra Intl
Region Saint Lucia
Timezone America/St_Lucia (UTC-4.0)
Plans Departing 119
Arriving 158
Stats Elevation 14 ft / 4 m (AMSL)
Location 13.733194° -60.952599°
Runways 1
Magnetic Variation 15.108° W
Sunrise 2018-05-27 09:36:50 UTC / 2018-05-27 05:36:50 Local
Sunset 2018-05-27 22:28:01 UTC / 2018-05-27 18:28:01 Local
Advertisement - Login to hide

Runways

ID Width Length Bearing (true) Bearing (mag) Surface Threshold Offset Overrun Length
10 148 ft / 45 m 8,979 ft / 2,737 m 90.01° 105.12° Asphalt 0 ft / 0 m 200 ft / 61 m
28 148 ft / 45 m 8,979 ft / 2,737 m 270.01° 285.12° Asphalt 459 ft / 140 m 0 ft / 0 m

Map

Weather


0- 5 10 15 20 25 30 35+ Temperature / ° C

Clouds and Precipitation
Forecast for 2018-05-28 00:00 UTC. Updated 5 hours ago

Ground ~20,000 ft ~40,000 ft Winds

METAR

TLPL 280300Z 10018KT 9999 FEW026 27/23 Q1017 NOSIG

TAF

TAF TLPL 272300Z 2800/2824 09016KT 9999 SCT024 PROB30 TEMPO 2800/2815 SHRA

Frequencies

Ground 121.60 MHz GND
Approach 119.80 MHz ST LUCIA APP
Tower 118.30 MHz TWR
Warning: Do not use this data for real-world aviation or navigation. No guarantee of current accuracy is given.